Time,TemperatureF,DewpointF,PressureIn,WindDirection,WindDirectionDegrees,WindSpeedMPH,WindSpeedGustMPH,Humidity,HourlyPrecipIn,Conditions,Clouds,dailyrainin,SoftwareType,DateUTC
2013-10-26 00:01:00,35.3,33.2,30.23,North,352,0.0,0.0,92,-99.99,,,0.00,wview2wurapid,2013-10-26 04:01:00,
2013-10-26 00:02:00,35.3,33.2,30.24,North,351,0.0,0.0,92,-99.99,,,0.00,wview2wurapid,2013-10-26 04:02:00,
2013-10-26 00:07:00,35.5,33.4,30.23,North,352,0.0,0.0,92,-99.99,,,0.00,wview2wurapid,2013-10-26 04:07:00,
2013-10-26 00:12:00,35.4,33.3,30.24,North,351,0.0,0.0,92,-99.99,,,0.00,wview2wurapid,2013-10-26 04:12:00,
2013-10-26 00:17:00,35.5,33.7,30.24,North,352,0.0,0.0,93,-99.99,,,0.00,wview2wurapid,2013-10-26 04:17:00,
2013-10-26 00:22:00,35.7,33.9,30.24,North,352,0.0,0.0,93,-99.99,,,0.00,wview2wurapid,2013-10-26 04:22:00,
2013-10-26 00:27:00,35.7,33.6,30.24,North,352,0.0,0.0,92,-99.99,,,0.00,wview2wurapid,2013-10-26 04:27:00,
2013-10-26 00:32:00,35.9,34.1,30.24,North,351,0.0,0.0,93,-99.99,,,0.00,wview2wurapid,2013-10-26 04:32:00,
2013-10-26 00:37:00,36.0,33.9,30.24,North,352,0.0,0.0,92,-99.99,,,0.00,wview2wurapid,2013-10-26 04:37:00,
2013-10-26 00:42:00,35.9,33.8,30.24,North,352,0.0,0.0,92,-99.99,,,0.00,wview2wurapid,2013-10-26 04:42:00,
2013-10-26 00:47:00,36.0,33.9,30.24,North,352,0.0,0.0,92,-99.99,,,0.00,wview2wurapid,2013-10-26 04:47:00,
2013-10-26 00:52:00,36.4,34.3,30.24,North,352,0.0,0.0,92,-99.99,,,0.00,wview2wurapid,2013-10-26 04:52:00,
2013-10-26 00:57:00,36.8,34.4,30.24,North,352,0.0,0.0,91,-99.99,,,0.00,wview2wurapid,2013-10-26 04:57:00,
2013-10-26 01:02:00,37.1,34.4,30.24,North,352,0.0,0.0,90,-99.99,,,0.00,wview2wurapid,2013-10-26 05:02:00,
2013-10-26 01:07:00,37.3,34.4,30.24,North,351,0.0,0.0,89,-99.99,,,0.00,wview2wurapid,2013-10-26 05:07:00,
2013-10-26 01:12:00,37.4,34.5,30.24,North,351,0.0,0.0,89,-99.99,,,0.00,wview2wurapid,2013-10-26 05:12:00,
2013-10-26 01:17:00,37.5,34.3,30.23,North,352,0.0,0.0,88,-99.99,,,0.00,wview2wurapid,2013-10-26 05:17:00,
2013-10-26 01:22:00,37.6,34.4,30.23,North,352,0.0,0.0,88,-99.99,,,0.00,wview2wurapid,2013-10-26 05:22:00,
2013-10-26 01:27:00,37.8,34.3,30.23,North,351,0.0,0.0,87,-99.99,,,0.00,wview2wurapid,2013-10-26 05:27:00,
2013-10-26 01:32:00,37.9,34.4,30.23,North,352,0.0,0.0,87,-99.99,,,0.00,wview2wurapid,2013-10-26 05:32:00,
2013-10-26 01:37:00,37.9,34.4,30.23,North,352,0.0,0.0,87,-99.99,,,0.00,wview2wurapid,2013-10-26 05:37:00,
2013-10-26 01:42:00,37.9,34.4,30.22,North,352,0.0,0.0,87,-99.99,,,0.00,wview2wurapid,2013-10-26 05:42:00,
2013-10-26 01:47:00,38.0,34.5,30.23,North,352,0.0,0.0,87,-99.99,,,0.00,wview2wurapid,2013-10-26 05:47:00,
2013-10-26 01:52:00,37.9,34.7,30.22,North,352,0.0,0.0,88,-99.99,,,0.00,wview2wurapid,2013-10-26 05:52:00,
2013-10-26 01:57:00,37.7,34.5,30.22,North,352,0.0,0.0,88,-99.99,,,0.00,wview2wurapid,2013-10-26 05:57:00,
2013-10-26 02:02:00,37.6,34.4,30.22,North,351,0.0,0.0,88,-99.99,,,0.00,wview2wurapid,2013-10-26 06:02:00,
2013-10-26 02:07:00,37.5,34.6,30.22,North,352,0.0,0.0,89,-99.99,,,0.00,wview2wurapid,2013-10-26 06:07:00,
2013-10-26 02:12:00,37.4,34.5,30.22,North,352,0.0,0.0,89,-99.99,,,0.00,wview2wurapid,2013-10-26 06:12:00,
2013-10-26 02:17:00,37.2,34.3,30.22,North,352,0.0,0.0,89,-99.99,,,0.00,wview2wurapid,2013-10-26 06:17:00,
2013-10-26 02:22:00,36.8,33.6,30.22,North,352,0.0,0.0,88,-99.99,,,0.00,wview2wurapid,2013-10-26 06:22:00,
2013-10-26 02:27:00,36.5,33.9,30.22,North,352,0.0,0.0,90,-99.99,,,0.00,wview2wurapid,2013-10-26 06:27:00,
2013-10-26 02:32:00,36.5,34.1,30.22,North,352,0.0,0.0,91,-99.99,,,0.00,wview2wurapid,2013-10-26 06:32:00,
2013-10-26 02:37:00,36.4,33.8,30.22,North,352,0.0,0.0,90,-99.99,,,0.00,wview2wurapid,2013-10-26 06:37:00,
2013-10-26 02:42:00,36.3,33.9,30.22,North,352,0.0,0.0,91,-99.99,,,0.00,wview2wurapid,2013-10-26 06:42:00,
2013-10-26 02:47:00,36.3,33.9,30.22,North,352,0.0,0.0,91,-99.99,,,0.00,wview2wurapid,2013-10-26 06:47:00,
2013-10-26 02:52:00,36.2,33.8,30.22,North,352,0.0,0.0,91,-99.99,,,0.00,wview2wurapid,2013-10-26 06:52:00,
2013-10-26 02:57:00,36.1,33.7,30.23,North,351,0.0,0.0,91,-99.99,,,0.00,wview2wurapid,2013-10-26 06:57:00,
2013-10-26 03:02:00,36.1,33.7,30.22,North,352,0.0,0.0,91,-99.99,,,0.00,wview2wurapid,2013-10-26 07:02:00,
2013-10-26 03:07:00,35.9,33.5,30.22,North,352,0.0,0.0,91,-99.99,,,0.00,wview2wurapid,2013-10-26 07:07:00,
2013-10-26 03:12:00,35.8,33.4,30.22,North,352,0.0,0.0,91,-99.99,,,0.00,wview2wurapid,2013-10-26 07:12:00,
2013-10-26 03:17:00,35.8,33.4,30.22,North,351,0.0,0.0,91,-99.99,,,0.00,wview2wurapid,2013-10-26 07:17:00,
2013-10-26 03:22:00,35.7,33.3,30.21,North,352,0.0,0.0,91,-99.99,,,0.00,wview2wurapid,2013-10-26 07:22:00,
2013-10-26 03:27:00,35.6,33.2,30.22,North,352,0.0,0.0,91,-99.99,,,0.00,wview2wurapid,2013-10-26 07:27:00,
2013-10-26 03:32:00,35.5,33.1,30.21,North,352,0.0,0.0,91,-99.99,,,0.00,wview2wurapid,2013-10-26 07:32:00,
2013-10-26 03:37:00,35.5,33.4,30.21,North,352,0.0,0.0,92,-99.99,,,0.00,wview2wurapid,2013-10-26 07:37:00,
2013-10-26 03:42:00,35.4,33.3,30.21,North,351,0.0,0.0,92,-99.99,,,0.00,wview2wurapid,2013-10-26 07:42:00,
2013-10-26 03:47:00,35.3,33.2,30.21,North,352,0.0,0.0,92,-99.99,,,0.00,wview2wurapid,2013-10-26 07:47:00,
2013-10-26 03:52:00,35.3,33.2,30.21,North,352,0.0,0.0,92,-99.99,,,0.00,wview2wurapid,2013-10-26 07:52:00,
2013-10-26 03:57:00,35.3,33.2,30.21,North,352,0.0,0.0,92,-99.99,,,0.00,wview2wurapid,2013-10-26 07:57:00,
2013-10-26 04:02:00,35.2,32.8,30.21,North,352,0.0,0.0,91,-99.99,,,0.00,wview2wurapid,2013-10-26 08:02:00,
2013-10-26 04:07:00,35.2,32.8,30.21,North,352,0.0,0.0,91,-99.99,,,0.00,wview2wurapid,2013-10-26 08:07:00,
2013-10-26 04:12:00,35.3,32.9,30.21,North,352,0.0,0.0,91,-99.99,,,0.00,wview2wurapid,2013-10-26 08:12:00,
2013-10-26 04:17:00,35.3,32.7,30.21,North,352,0.0,0.0,90,-99.99,,,0.00,wview2wurapid,2013-10-26 08:17:00,
2013-10-26 04:22:00,35.3,32.7,30.21,North,352,0.0,0.0,90,-99.99,,,0.00,wview2wurapid,2013-10-26 08:22:00,
2013-10-26 04:27:00,35.3,32.7,30.21,North,352,0.0,0.0,90,-99.99,,,0.00,wview2wurapid,2013-10-26 08:27:00,
2013-10-26 04:32:00,35.3,32.7,30.21,North,351,0.0,0.0,90,-99.99,,,0.00,wview2wurapid,2013-10-26 08:32:00,
2013-10-26 04:37:00,35.2,32.6,30.21,North,351,0.0,0.0,90,-99.99,,,0.00,wview2wurapid,2013-10-26 08:37:00,
2013-10-26 04:42:00,35.1,32.5,30.21,North,352,0.0,0.0,90,-99.99,,,0.00,wview2wurapid,2013-10-26 08:42:00,
2013-10-26 04:47:00,35.0,32.4,30.21,North,351,0.0,0.0,90,-99.99,,,0.00,wview2wurapid,2013-10-26 08:47:00,
2013-10-26 04:52:00,34.9,32.3,30.21,North,352,0.0,0.0,90,-99.99,,,0.00,wview2wurapid,2013-10-26 08:52:00,
2013-10-26 04:57:00,34.9,32.3,30.21,North,352,0.0,0.0,90,-99.99,,,0.00,wview2wurapid,2013-10-26 08:57:00,
2013-10-26 05:02:00,34.8,32.2,30.21,North,352,0.0,0.0,90,-99.99,,,0.00,wview2wurapid,2013-10-26 09:02:00,
2013-10-26 05:07:00,34.8,32.2,30.21,North,352,0.0,0.0,90,-99.99,,,0.00,wview2wurapid,2013-10-26 09:07:00,
2013-10-26 05:12:00,34.7,32.1,30.21,North,352,0.0,0.0,90,-99.99,,,0.00,wview2wurapid,2013-10-26 09:12:00,
2013-10-26 05:17:00,34.7,32.1,30.21,North,351,0.0,0.0,90,-99.99,,,0.00,wview2wurapid,2013-10-26 09:17:00,
2013-10-26 05:22:00,34.7,31.8,30.21,North,352,0.0,0.0,89,-99.99,,,0.00,wview2wurapid,2013-10-26 09:22:00,
2013-10-26 05:27:00,34.7,31.8,30.21,North,352,0.0,0.0,89,-99.99,,,0.00,wview2wurapid,2013-10-26 09:27:00,
2013-10-26 05:32:00,34.7,31.8,30.21,North,352,0.0,0.0,89,-99.99,,,0.00,wview2wurapid,2013-10-26 09:32:00,
2013-10-26 05:37:00,34.6,31.7,30.21,North,352,0.0,0.0,89,-99.99,,,0.00,wview2wurapid,2013-10-26 09:37:00,
2013-10-26 05:42:00,34.5,31.6,30.20,North,352,0.0,0.0,89,-99.99,,,0.00,wview2wurapid,2013-10-26 09:42:00,
2013-10-26 05:47:00,34.4,31.5,30.20,North,352,0.0,0.0,89,-99.99,,,0.00,wview2wurapid,2013-10-26 09:47:00,
2013-10-26 05:52:00,34.4,31.5,30.20,North,352,0.0,0.0,89,-99.99,,,0.00,wview2wurapid,2013-10-26 09:52:00,
2013-10-26 05:57:00,34.3,31.4,30.20,North,352,0.0,0.0,89,-99.99,,,0.00,wview2wurapid,2013-10-26 09:57:00,
2013-10-26 06:02:00,34.3,31.4,30.20,North,352,0.0,0.0,89,-99.99,,,0.00,wview2wurapid,2013-10-26 10:02:00,
2013-10-26 06:07:00,34.2,31.3,30.20,North,352,0.0,0.0,89,-99.99,,,0.00,wview2wurapid,2013-10-26 10:07:00,
2013-10-26 06:12:00,34.1,31.2,30.20,North,352,0.0,0.0,89,-99.99,,,0.00,wview2wurapid,2013-10-26 10:12:00,
2013-10-26 06:17:00,34.1,31.2,30.20,North,352,0.0,0.0,89,-99.99,,,0.00,wview2wurapid,2013-10-26 10:17:00,
2013-10-26 06:22:00,34.0,31.1,30.20,North,352,0.0,0.0,89,-99.99,,,0.00,wview2wurapid,2013-10-26 10:22:00,
2013-10-26 06:27:00,34.0,31.1,30.20,North,352,0.0,0.0,89,-99.99,,,0.00,wview2wurapid,2013-10-26 10:27:00,
2013-10-26 06:32:00,33.9,31.3,30.20,North,352,0.0,0.0,90,-99.99,,,0.00,wview2wurapid,2013-10-26 10:32:00,
2013-10-26 06:37:00,33.8,31.2,30.20,North,352,0.0,0.0,90,-99.99,,,0.00,wview2wurapid,2013-10-26 10:37:00,
2013-10-26 06:42:00,33.7,31.1,30.20,North,352,0.0,0.0,90,-99.99,,,0.00,wview2wurapid,2013-10-26 10:42:00,
2013-10-26 06:47:00,33.7,31.1,30.20,North,352,0.0,0.0,90,-99.99,,,0.00,wview2wurapid,2013-10-26 10:47:00,
2013-10-26 06:52:00,33.6,31.0,30.20,North,352,0.0,0.0,90,-99.99,,,0.00,wview2wurapid,2013-10-26 10:52:00,
2013-10-26 06:57:00,33.6,31.0,30.20,North,352,0.0,0.0,90,-99.99,,,0.00,wview2wurapid,2013-10-26 10:57:00,
2013-10-26 07:02:00,33.5,30.9,30.20,North,351,0.0,0.0,90,-99.99,,,0.00,wview2wurapid,2013-10-26 11:02:00,
2013-10-26 07:07:00,33.4,30.8,30.20,North,352,0.0,0.0,90,-99.99,,,0.00,wview2wurapid,2013-10-26 11:07:00,
2013-10-26 07:12:00,33.5,31.2,30.20,North,351,0.0,0.0,91,-99.99,,,0.00,wview2wurapid,2013-10-26 11:12:00,
2013-10-26 07:17:00,33.5,30.9,30.20,North,351,0.0,0.0,90,-99.99,,,0.00,wview2wurapid,2013-10-26 11:17:00,
2013-10-26 07:22:00,33.5,30.9,30.20,North,351,0.0,0.0,90,-99.99,,,0.00,wview2wurapid,2013-10-26 11:22:00,
2013-10-26 07:27:00,33.5,30.9,30.20,North,351,0.0,0.0,90,-99.99,,,0.00,wview2wurapid,2013-10-26 11:27:00,
2013-10-26 07:32:00,33.6,31.3,30.20,North,352,0.0,0.0,91,-99.99,,,0.00,wview2wurapid,2013-10-26 11:32:00,
2013-10-26 07:37:00,33.7,31.1,30.20,North,352,0.0,0.0,90,-99.99,,,0.00,wview2wurapid,2013-10-26 11:37:00,
2013-10-26 07:42:00,33.7,31.1,30.20,North,352,0.0,0.0,90,-99.99,,,0.00,wview2wurapid,2013-10-26 11:42:00,
2013-10-26 07:47:00,33.7,31.1,30.20,North,352,0.0,0.0,90,-99.99,,,0.00,wview2wurapid,2013-10-26 11:47:00,
2013-10-26 07:52:00,33.7,31.4,30.20,North,352,0.0,0.0,91,-99.99,,,0.00,wview2wurapid,2013-10-26 11:52:00,
2013-10-26 07:57:00,33.9,31.6,30.20,North,352,0.0,0.0,91,-99.99,,,0.00,wview2wurapid,2013-10-26 11:57:00,
2013-10-26 08:02:00,34.1,31.8,30.21,North,352,0.0,0.0,91,-99.99,,,0.00,wview2wurapid,2013-10-26 12:02:00,
2013-10-26 08:07:00,34.3,31.7,30.21,North,352,0.0,0.0,90,-99.99,,,0.00,wview2wurapid,2013-10-26 12:07:00,
2013-10-26 08:12:00,34.6,32.0,30.21,North,351,0.0,0.0,90,-99.99,,,0.00,wview2wurapid,2013-10-26 12:12:00,
2013-10-26 08:17:00,34.9,32.3,30.20,North,352,0.0,0.0,90,-99.99,,,0.00,wview2wurapid,2013-10-26 12:17:00,
2013-10-26 08:22:00,35.4,32.5,30.20,North,352,0.0,0.0,89,-99.99,,,0.00,wview2wurapid,2013-10-26 12:22:00,
2013-10-26 08:27:00,35.9,33.0,30.20,North,352,0.0,0.0,89,-99.99,,,0.00,wview2wurapid,2013-10-26 12:27:00,
2013-10-26 08:32:00,36.6,33.4,30.20,North,352,0.0,0.0,88,-99.99,,,0.00,wview2wurapid,2013-10-26 12:32:00,
2013-10-26 08:37:00,37.5,34.0,30.20,South,189,0.0,0.0,87,-99.99,,,0.00,wview2wurapid,2013-10-26 12:37:00,
2013-10-26 08:42:00,38.5,34.4,30.20,ESE,120,0.0,0.0,85,-99.99,,,0.00,wview2wurapid,2013-10-26 12:42:00,
2013-10-26 08:47:00,39.8,34.8,30.20,East,90,0.0,0.0,82,-99.99,,,0.00,wview2wurapid,2013-10-26 12:47:00,
2013-10-26 08:52:00,40.6,34.3,30.20,SE,142,0.0,0.0,78,-99.99,,,0.00,wview2wurapid,2013-10-26 12:52:00,
2013-10-26 08:57:00,41.5,34.8,30.20,ENE,70,0.0,0.0,77,-99.99,,,0.00,wview2wurapid,2013-10-26 12:57:00,
2013-10-26 09:02:00,42.6,34.9,30.20,ENE,74,0.0,0.0,74,-99.99,,,0.00,wview2wurapid,2013-10-26 13:02:00,
2013-10-26 09:07:00,43.4,34.6,30.20,SE,134,2.0,2.0,71,-99.99,,,0.00,wview2wurapid,2013-10-26 13:07:00,
2013-10-26 09:12:00,43.4,34.3,30.20,ENE,57,0.0,0.0,70,-99.99,,,0.00,wview2wurapid,2013-10-26 13:12:00,
2013-10-26 09:17:00,43.7,34.6,30.20,East,98,0.0,0.0,70,-99.99,,,0.00,wview2wurapid,2013-10-26 13:17:00,
2013-10-26 09:22:00,44.0,34.1,30.20,NE,34,0.0,0.0,68,-99.99,,,0.00,wview2wurapid,2013-10-26 13:22:00,
2013-10-26 09:27:00,44.2,34.3,30.20,North,349,0.0,0.0,68,-99.99,,,0.00,wview2wurapid,2013-10-26 13:27:00,
2013-10-26 09:32:00,44.5,35.0,30.19,NE,37,0.0,0.0,69,-99.99,,,0.00,wview2wurapid,2013-10-26 13:32:00,
2013-10-26 09:37:00,44.8,34.9,30.19,ENE,73,1.0,1.0,68,-99.99,,,0.00,wview2wurapid,2013-10-26 13:37:00,
2013-10-26 09:42:00,45.0,34.3,30.19,NNE,33,0.0,0.0,66,-99.99,,,0.00,wview2wurapid,2013-10-26 13:42:00,
2013-10-26 09:47:00,45.3,35.0,30.19,ESE,114,0.0,0.0,67,-99.99,,,0.00,wview2wurapid,2013-10-26 13:47:00,
2013-10-26 09:52:00,45.8,35.1,30.19,ESE,115,1.0,1.0,66,-99.99,,,0.00,wview2wurapid,2013-10-26 13:52:00,
2013-10-26 09:57:00,46.2,34.3,30.18,ENE,65,0.0,0.0,63,-99.99,,,0.00,wview2wurapid,2013-10-26 13:57:00,
2013-10-26 10:02:00,46.5,34.6,30.18,SSW,193,0.0,0.0,63,-99.99,,,0.00,wview2wurapid,2013-10-26 14:02:00,
2013-10-26 10:07:00,47.0,34.7,30.18,WNW,298,0.0,0.0,62,-99.99,,,0.00,wview2wurapid,2013-10-26 14:07:00,
2013-10-26 10:12:00,47.0,34.3,30.18,NE,56,0.0,0.0,61,-99.99,,,0.00,wview2wurapid,2013-10-26 14:12:00,
2013-10-26 10:17:00,46.9,34.2,30.18,NW,320,0.0,0.0,61,-99.99,,,0.00,wview2wurapid,2013-10-26 14:17:00,
2013-10-26 10:22:00,47.4,34.2,30.17,East,79,1.0,1.0,60,-99.99,,,0.00,wview2wurapid,2013-10-26 14:22:00,
2013-10-26 10:27:00,47.7,34.5,30.17,SE,131,1.0,1.0,60,-99.99,,,0.00,wview2wurapid,2013-10-26 14:27:00,
2013-10-26 10:32:00,47.8,34.6,30.17,East,90,0.0,0.0,60,-99.99,,,0.00,wview2wurapid,2013-10-26 14:32:00,
2013-10-26 10:37:00,48.4,35.2,30.17,NE,50,3.0,3.0,60,-99.99,,,0.00,wview2wurapid,2013-10-26 14:37:00,
2013-10-26 10:42:00,48.8,34.3,30.17,East,100,1.0,1.0,57,-99.99,,,0.00,wview2wurapid,2013-10-26 14:42:00,
2013-10-26 10:47:00,49.2,34.6,30.17,South,181,0.0,0.0,57,-99.99,,,0.00,wview2wurapid,2013-10-26 14:47:00,
2013-10-26 10:52:00,49.6,34.6,30.16,SSE,152,1.0,1.0,56,-99.99,,,0.00,wview2wurapid,2013-10-26 14:52:00,
2013-10-26 10:57:00,50.0,34.9,30.16,NE,50,1.0,1.0,56,-99.99,,,0.00,wview2wurapid,2013-10-26 14:57:00,
2013-10-26 11:02:00,50.1,33.6,30.16,NE,43,1.0,1.0,53,-99.99,,,0.00,wview2wurapid,2013-10-26 15:02:00,
2013-10-26 11:07:00,50.1,34.6,30.16,East,98,1.0,1.0,55,-99.99,,,0.00,wview2wurapid,2013-10-26 15:07:00,
2013-10-26 11:12:00,50.5,35.4,30.16,ESE,113,0.0,0.0,56,-99.99,,,0.00,wview2wurapid,2013-10-26 15:12:00,
2013-10-26 11:17:00,50.6,34.1,30.15,East,82,1.0,1.0,53,-99.99,,,0.00,wview2wurapid,2013-10-26 15:17:00,
2013-10-26 11:22:00,50.6,34.1,30.15,SE,146,0.0,0.0,53,-99.99,,,0.00,wview2wurapid,2013-10-26 15:22:00,
2013-10-26 11:27:00,50.9,34.4,30.15,East,82,1.0,1.0,53,-99.99,,,0.00,wview2wurapid,2013-10-26 15:27:00,
2013-10-26 11:32:00,51.7,33.7,30.14,East,92,0.0,0.0,50,-99.99,,,0.00,wview2wurapid,2013-10-26 15:32:00,
2013-10-26 11:37:00,52.4,32.8,30.14,WSW,239,1.0,1.0,47,-99.99,,,0.00,wview2wurapid,2013-10-26 15:37:00,
2013-10-26 11:42:00,52.8,33.1,30.14,South,186,1.0,1.0,47,-99.99,,,0.00,wview2wurapid,2013-10-26 15:42:00,
2013-10-26 11:47:00,53.2,33.0,30.14,East,89,2.0,2.0,46,-99.99,,,0.00,wview2wurapid,2013-10-26 15:47:00,
2013-10-26 11:52:00,53.1,31.8,30.14,NNE,20,0.0,0.0,44,-99.99,,,0.00,wview2wurapid,2013-10-26 15:52:00,
2013-10-26 11:57:00,52.7,32.5,30.13,NW,307,2.0,2.0,46,-99.99,,,0.00,wview2wurapid,2013-10-26 15:57:00,
2013-10-26 12:02:00,52.7,32.0,30.12,SSE,147,3.0,3.0,45,-99.99,,,0.00,wview2wurapid,2013-10-26 16:02:00,
2013-10-26 12:07:00,52.8,32.6,30.13,ENE,62,1.0,1.0,46,-99.99,,,0.00,wview2wurapid,2013-10-26 16:07:00,
2013-10-26 12:12:00,53.4,33.1,30.12,ESE,103,0.0,0.0,46,-99.99,,,0.00,wview2wurapid,2013-10-26 16:12:00,
2013-10-26 12:17:00,53.3,33.1,30.12,NNE,20,2.0,2.0,46,-99.99,,,0.00,wview2wurapid,2013-10-26 16:17:00,
2013-10-26 12:22:00,52.7,32.5,30.11,ESE,122,3.0,3.0,46,-99.99,,,0.00,wview2wurapid,2013-10-26 16:22:00,
2013-10-26 12:27:00,52.4,32.8,30.11,NE,50,1.0,1.0,47,-99.99,,,0.00,wview2wurapid,2013-10-26 16:27:00,
2013-10-26 12:32:00,52.4,32.8,30.11,ENE,61,1.0,1.0,47,-99.99,,,0.00,wview2wurapid,2013-10-26 16:32:00,
2013-10-26 12:37:00,52.4,33.3,30.10,North,349,1.0,1.0,48,-99.99,,,0.00,wview2wurapid,2013-10-26 16:37:00,
2013-10-26 12:42:00,52.8,32.6,30.10,NE,37,1.0,1.0,46,-99.99,,,0.00,wview2wurapid,2013-10-26 16:42:00,
2013-10-26 12:47:00,53.2,32.4,30.10,North,356,0.0,0.0,45,-99.99,,,0.00,wview2wurapid,2013-10-26 16:47:00,
2013-10-26 12:52:00,53.7,31.2,30.10,ENE,72,0.0,0.0,42,-99.99,,,0.00,wview2wurapid,2013-10-26 16:52:00,
2013-10-26 12:57:00,53.4,30.9,30.10,NE,53,2.0,2.0,42,-99.99,,,0.00,wview2wurapid,2013-10-26 16:57:00,
2013-10-26 13:02:00,53.2,30.7,30.10,ESE,103,1.0,1.0,42,-99.99,,,0.00,wview2wurapid,2013-10-26 17:02:00,
2013-10-26 13:07:00,53.0,30.5,30.09,ESE,104,1.0,1.0,42,-99.99,,,0.00,wview2wurapid,2013-10-26 17:07:00,
2013-10-26 13:12:00,53.7,31.2,30.09,NNE,32,1.0,1.0,42,-99.99,,,0.00,wview2wurapid,2013-10-26 17:12:00,
2013-10-26 13:17:00,53.9,30.7,30.08,NNE,23,1.0,1.0,41,-99.99,,,0.00,wview2wurapid,2013-10-26 17:17:00,
2013-10-26 13:22:00,53.9,31.3,30.08,NW,313,2.0,2.0,42,-99.99,,,0.00,wview2wurapid,2013-10-26 17:22:00,
2013-10-26 13:27:00,53.7,31.7,30.08,NNW,327,1.0,1.0,43,-99.99,,,0.00,wview2wurapid,2013-10-26 17:27:00,
2013-10-26 13:32:00,53.5,31.6,30.07,ENE,60,0.0,0.0,43,-99.99,,,0.00,wview2wurapid,2013-10-26 17:32:00,
2013-10-26 13:37:00,54.2,31.6,30.07,ENE,70,2.0,2.0,42,-99.99,,,0.00,wview2wurapid,2013-10-26 17:37:00,
2013-10-26 13:42:00,54.7,31.5,30.07,ESE,113,1.0,1.0,41,-99.99,,,0.00,wview2wurapid,2013-10-26 17:42:00,
2013-10-26 13:47:00,54.4,31.8,30.06,SSE,158,2.0,2.0,42,-99.99,,,0.00,wview2wurapid,2013-10-26 17:47:00,
2013-10-26 13:52:00,54.0,30.8,30.06,ESE,121,1.0,1.0,41,-99.99,,,0.00,wview2wurapid,2013-10-26 17:52:00,
2013-10-26 13:57:00,53.7,30.6,30.05,SSE,147,2.0,2.0,41,-99.99,,,0.00,wview2wurapid,2013-10-26 17:57:00,
2013-10-26 14:02:00,53.5,30.4,30.05,NNE,18,1.0,1.0,41,-99.99,,,0.00,wview2wurapid,2013-10-26 18:02:00,
2013-10-26 14:07:00,53.3,30.8,30.05,NW,316,0.0,0.0,42,-99.99,,,0.00,wview2wurapid,2013-10-26 18:07:00,
2013-10-26 14:12:00,53.6,31.7,30.05,NE,40,0.0,0.0,43,-99.99,,,0.00,wview2wurapid,2013-10-26 18:12:00,
2013-10-26 14:17:00,53.5,31.0,30.04,ESE,116,1.0,1.0,42,-99.99,,,0.00,wview2wurapid,2013-10-26 18:17:00,
2013-10-26 14:22:00,53.5,30.4,30.04,ESE,115,0.0,0.0,41,-99.99,,,0.00,wview2wurapid,2013-10-26 18:22:00,
2013-10-26 14:27:00,53.2,30.7,30.04,ESE,122,1.0,1.0,42,-99.99,,,0.00,wview2wurapid,2013-10-26 18:27:00,
2013-10-26 14:32:00,53.0,31.1,30.04,SE,131,1.0,1.0,43,-99.99,,,0.00,wview2wurapid,2013-10-26 18:32:00,
2013-10-26 14:37:00,52.8,30.3,30.04,NE,46,2.0,2.0,42,-99.99,,,0.00,wview2wurapid,2013-10-26 18:37:00,
2013-10-26 14:42:00,52.8,30.3,30.03,WNW,301,0.0,0.0,42,-99.99,,,0.00,wview2wurapid,2013-10-26 18:42:00,
2013-10-26 14:47:00,52.5,31.2,30.03,NNE,12,1.0,1.0,44,-99.99,,,0.00,wview2wurapid,2013-10-26 18:47:00,
2013-10-26 14:52:00,52.6,30.7,30.03,NNW,337,0.0,0.0,43,-99.99,,,0.00,wview2wurapid,2013-10-26 18:52:00,
2013-10-26 14:57:00,52.5,30.1,30.02,East,82,0.0,0.0,42,-99.99,,,0.00,wview2wurapid,2013-10-26 18:57:00,
2013-10-26 15:02:00,52.2,30.4,30.02,ENE,65,0.0,0.0,43,-99.99,,,0.00,wview2wurapid,2013-10-26 19:02:00,
2013-10-26 15:07:00,52.3,31.0,30.02,WSW,240,2.0,2.0,44,-99.99,,,0.00,wview2wurapid,2013-10-26 19:07:00,
2013-10-26 15:12:00,52.3,31.0,30.02,West,264,1.0,1.0,44,-99.99,,,0.00,wview2wurapid,2013-10-26 19:12:00,
2013-10-26 15:17:00,52.4,31.1,30.02,NW,310,1.0,1.0,44,-99.99,,,0.00,wview2wurapid,2013-10-26 19:17:00,
2013-10-26 15:22:00,52.4,30.0,30.01,NNW,331,1.0,1.0,42,-99.99,,,0.00,wview2wurapid,2013-10-26 19:22:00,
2013-10-26 15:27:00,52.4,30.6,30.01,NNE,28,0.0,0.0,43,-99.99,,,0.00,wview2wurapid,2013-10-26 19:27:00,
2013-10-26 15:32:00,52.3,30.5,30.01,WSW,256,0.0,0.0,43,-99.99,,,0.00,wview2wurapid,2013-10-26 19:32:00,
2013-10-26 15:37:00,52.2,30.4,30.01,North,349,1.0,1.0,43,-99.99,,,0.00,wview2wurapid,2013-10-26 19:37:00,
2013-10-26 15:42:00,52.1,30.9,30.01,North,356,0.0,0.0,44,-99.99,,,0.00,wview2wurapid,2013-10-26 19:42:00,
2013-10-26 15:47:00,52.0,30.8,30.01,North,9,2.0,2.0,44,-99.99,,,0.00,wview2wurapid,2013-10-26 19:47:00,
2013-10-26 15:52:00,51.8,30.6,30.01,WSW,246,0.0,0.0,44,-99.99,,,0.00,wview2wurapid,2013-10-26 19:52:00,
2013-10-26 15:57:00,51.8,31.1,30.00,NE,53,0.0,0.0,45,-99.99,,,0.00,wview2wurapid,2013-10-26 19:57:00,
2013-10-26 16:02:00,51.7,31.1,30.00,NE,43,0.0,0.0,45,-99.99,,,0.00,wview2wurapid,2013-10-26 20:02:00,
2013-10-26 16:07:00,51.7,31.6,30.00,NW,325,0.0,0.0,46,-99.99,,,0.00,wview2wurapid,2013-10-26 20:07:00,
2013-10-26 16:12:00,51.6,31.5,29.99,NE,49,2.0,2.0,46,-99.99,,,0.00,wview2wurapid,2013-10-26 20:12:00,
2013-10-26 16:17:00,51.6,31.5,29.99,NE,44,0.0,0.0,46,-99.99,,,0.00,wview2wurapid,2013-10-26 20:17:00,
2013-10-26 16:22:00,51.5,31.9,29.99,NE,49,2.0,2.0,47,-99.99,,,0.00,wview2wurapid,2013-10-26 20:22:00,
2013-10-26 16:27:00,51.5,31.9,29.99,NNE,33,3.0,3.0,47,-99.99,,,0.00,wview2wurapid,2013-10-26 20:27:00,
2013-10-26 16:32:00,51.4,31.9,29.99,ENE,65,0.0,0.0,47,-99.99,,,0.00,wview2wurapid,2013-10-26 20:32:00,
2013-10-26 16:37:00,51.2,31.7,29.99,NE,44,0.0,0.0,47,-99.99,,,0.00,wview2wurapid,2013-10-26 20:37:00,
2013-10-26 16:42:00,51.1,32.1,29.99,South,171,1.0,1.0,48,-99.99,,,0.00,wview2wurapid,2013-10-26 20:42:00,
2013-10-26 16:47:00,51.0,32.0,29.99,NE,48,2.0,2.0,48,-99.99,,,0.00,wview2wurapid,2013-10-26 20:47:00,
2013-10-26 16:52:00,50.9,32.9,29.99,SSE,152,0.0,0.0,50,-99.99,,,0.00,wview2wurapid,2013-10-26 20:52:00,
2013-10-26 16:57:00,50.8,32.8,29.99,WSW,253,1.0,1.0,50,-99.99,,,0.00,wview2wurapid,2013-10-26 20:57:00,
2013-10-26 17:02:00,50.7,32.7,29.98,NNE,23,0.0,0.0,50,-99.99,,,0.00,wview2wurapid,2013-10-26 21:02:00,
2013-10-26 17:07:00,50.7,32.7,29.97,NW,312,0.0,0.0,50,-99.99,,,0.00,wview2wurapid,2013-10-26 21:07:00,
2013-10-26 17:12:00,50.5,32.6,29.97,SW,231,1.0,1.0,50,-99.99,,,0.00,wview2wurapid,2013-10-26 21:12:00,
2013-10-26 17:17:00,50.5,32.6,29.97,NNE,29,0.0,0.0,50,-99.99,,,0.00,wview2wurapid,2013-10-26 21:17:00,
2013-10-26 17:22:00,50.3,32.9,29.96,ESE,113,0.0,0.0,51,-99.99,,,0.00,wview2wurapid,2013-10-26 21:22:00,
2013-10-26 17:27:00,50.3,32.4,29.96,SE,132,1.0,1.0,50,-99.99,,,0.00,wview2wurapid,2013-10-26 21:27:00,
2013-10-26 17:32:00,50.5,32.6,29.96,NE,51,2.0,2.0,50,-99.99,,,0.00,wview2wurapid,2013-10-26 21:32:00,
2013-10-26 17:37:00,50.3,33.4,29.96,North,1,0.0,0.0,52,-99.99,,,0.00,wview2wurapid,2013-10-26 21:37:00,
2013-10-26 17:42:00,50.3,31.9,29.96,WSW,245,0.0,0.0,49,-99.99,,,0.00,wview2wurapid,2013-10-26 21:42:00,
2013-10-26 17:47:00,50.2,32.8,29.96,North,356,0.0,0.0,51,-99.99,,,0.00,wview2wurapid,2013-10-26 21:47:00,
2013-10-26 17:52:00,50.0,32.6,29.96,SSE,148,0.0,0.0,51,-99.99,,,0.00,wview2wurapid,2013-10-26 21:52:00,
2013-10-26 17:57:00,49.9,32.0,29.95,ESE,113,0.0,0.0,50,-99.99,,,0.00,wview2wurapid,2013-10-26 21:57:00,
2013-10-26 18:02:00,49.8,32.4,29.95,ESE,110,0.0,0.0,51,-99.99,,,0.00,wview2wurapid,2013-10-26 22:02:00,
2013-10-26 18:07:00,49.5,32.1,29.94,SW,215,0.0,0.0,51,-99.99,,,0.00,wview2wurapid,2013-10-26 22:07:00,
2013-10-26 18:12:00,49.2,32.3,29.93,North,357,0.0,0.0,52,-99.99,,,0.00,wview2wurapid,2013-10-26 22:12:00,
2013-10-26 18:17:00,49.1,32.7,29.92,ENE,62,0.0,0.0,53,-99.99,,,0.00,wview2wurapid,2013-10-26 22:17:00,
2013-10-26 18:22:00,48.9,32.5,29.92,ESE,104,2.0,2.0,53,-99.99,,,0.00,wview2wurapid,2013-10-26 22:22:00,
2013-10-26 18:27:00,48.7,32.8,29.92,NNE,20,0.0,0.0,54,-99.99,,,0.00,wview2wurapid,2013-10-26 22:27:00,
2013-10-26 18:32:00,48.6,32.3,29.93,WSW,248,0.0,0.0,53,-99.99,,,0.00,wview2wurapid,2013-10-26 22:32:00,
2013-10-26 18:37:00,48.7,32.3,29.93,NE,38,0.0,0.0,53,-99.99,,,0.00,wview2wurapid,2013-10-26 22:37:00,
2013-10-26 18:42:00,48.6,32.3,29.93,North,354,1.0,1.0,53,-99.99,,,0.00,wview2wurapid,2013-10-26 22:42:00,
2013-10-26 18:47:00,48.5,32.6,29.94,WNW,291,0.0,0.0,54,-99.99,,,0.00,wview2wurapid,2013-10-26 22:47:00,
2013-10-26 18:52:00,48.5,32.2,29.94,NNE,25,0.0,0.0,53,-99.99,,,0.00,wview2wurapid,2013-10-26 22:52:00,
2013-10-26 18:57:00,48.4,31.1,29.95,ESE,110,0.0,0.0,51,-99.99,,,0.00,wview2wurapid,2013-10-26 22:57:00,
2013-10-26 19:02:00,48.4,31.6,29.95,WSW,238,0.0,0.0,52,-99.99,,,0.00,wview2wurapid,2013-10-26 23:02:00,
2013-10-26 19:07:00,48.3,32.0,29.95,North,359,0.0,0.0,53,-99.99,,,0.00,wview2wurapid,2013-10-26 23:07:00,
2013-10-26 19:12:00,48.2,31.4,29.95,WNW,283,0.0,0.0,52,-99.99,,,0.00,wview2wurapid,2013-10-26 23:12:00,
2013-10-26 19:17:00,48.0,32.2,29.95,West,278,0.0,0.0,54,-99.99,,,0.00,wview2wurapid,2013-10-26 23:17:00,
2013-10-26 19:22:00,47.8,31.0,29.95,North,6,0.0,0.0,52,-99.99,,,0.00,wview2wurapid,2013-10-26 23:22:00,
2013-10-26 19:27:00,47.6,31.3,29.95,WNW,288,0.0,0.0,53,-99.99,,,0.00,wview2wurapid,2013-10-26 23:27:00,
2013-10-26 19:32:00,47.5,31.2,29.95,West,270,0.0,0.0,53,-99.99,,,0.00,wview2wurapid,2013-10-26 23:32:00,
2013-10-26 19:37:00,47.4,30.7,29.95,ENE,58,0.0,0.0,52,-99.99,,,0.00,wview2wurapid,2013-10-26 23:37:00,
2013-10-26 19:42:00,47.5,30.8,29.95,NNE,13,0.0,0.0,52,-99.99,,,0.00,wview2wurapid,2013-10-26 23:42:00,
2013-10-26 19:47:00,47.6,30.9,29.95,NE,50,0.0,0.0,52,-99.99,,,0.00,wview2wurapid,2013-10-26 23:47:00,
2013-10-26 19:52:00,47.4,31.1,29.95,NE,43,1.0,1.0,53,-99.99,,,0.00,wview2wurapid,2013-10-26 23:52:00,
2013-10-26 19:57:00,47.3,31.0,29.95,WSW,252,0.0,0.0,53,-99.99,,,0.00,wview2wurapid,2013-10-26 23:57:00,
2013-10-26 20:02:00,47.2,31.0,29.95,WSW,252,0.0,0.0,53,-99.99,,,0.00,wview2wurapid,2013-10-27 00:02:00,
2013-10-26 20:07:00,47.0,30.8,29.95,WSW,251,0.0,0.0,53,-99.99,,,0.00,wview2wurapid,2013-10-27 00:07:00,
2013-10-26 20:12:00,46.7,30.9,29.95,WSW,252,0.0,0.0,54,-99.99,,,0.00,wview2wurapid,2013-10-27 00:12:00,
2013-10-26 20:17:00,46.5,31.2,29.95,WSW,252,0.0,0.0,55,-99.99,,,0.00,wview2wurapid,2013-10-27 00:17:00,
2013-10-26 20:22:00,46.4,31.1,29.95,WSW,252,0.0,0.0,55,-99.99,,,0.00,wview2wurapid,2013-10-27 00:22:00,
2013-10-26 20:27:00,46.2,30.9,29.95,WSW,252,0.0,0.0,55,-99.99,,,0.00,wview2wurapid,2013-10-27 00:27:00,
2013-10-26 20:32:00,46.1,30.8,29.94,WSW,252,0.0,0.0,55,-99.99,,,0.00,wview2wurapid,2013-10-27 00:32:00,
2013-10-26 20:37:00,46.0,30.7,29.94,WSW,252,0.0,0.0,55,-99.99,,,0.00,wview2wurapid,2013-10-27 00:37:00,
2013-10-26 20:42:00,46.0,31.2,29.94,WSW,252,0.0,0.0,56,-99.99,,,0.00,wview2wurapid,2013-10-27 00:42:00,
2013-10-26 20:47:00,46.1,31.7,29.94,NE,56,0.0,0.0,57,-99.99,,,0.00,wview2wurapid,2013-10-27 00:47:00,
2013-10-26 20:52:00,46.2,32.2,29.94,ENE,57,0.0,0.0,58,-99.99,,,0.00,wview2wurapid,2013-10-27 00:52:00,
2013-10-26 20:57:00,46.3,31.9,29.94,ENE,57,0.0,0.0,57,-99.99,,,0.00,wview2wurapid,2013-10-27 00:57:00,
2013-10-26 21:02:00,46.6,32.6,29.94,NE,43,0.0,0.0,58,-99.99,,,0.00,wview2wurapid,2013-10-27 01:02:00,
2013-10-26 21:07:00,46.9,32.5,29.94,NE,41,0.0,0.0,57,-99.99,,,0.00,wview2wurapid,2013-10-27 01:07:00,
2013-10-26 21:12:00,47.2,32.3,29.94,NE,43,0.0,0.0,56,-99.99,,,0.00,wview2wurapid,2013-10-27 01:12:00,
2013-10-26 21:17:00,47.5,33.0,29.93,NE,41,0.0,0.0,57,-99.99,,,0.00,wview2wurapid,2013-10-27 01:17:00,
2013-10-26 21:22:00,47.7,32.8,29.94,NE,45,0.0,0.0,56,-99.99,,,0.00,wview2wurapid,2013-10-27 01:22:00,
2013-10-26 21:27:00,47.9,33.0,29.93,WSW,245,0.0,0.0,56,-99.99,,,0.00,wview2wurapid,2013-10-27 01:27:00,
2013-10-26 21:32:00,48.0,33.5,29.93,NNE,33,0.0,0.0,57,-99.99,,,0.00,wview2wurapid,2013-10-27 01:32:00,
2013-10-26 21:37:00,48.0,33.1,29.94,NNE,33,0.0,0.0,56,-99.99,,,0.00,wview2wurapid,2013-10-27 01:37:00,
2013-10-26 21:42:00,48.1,33.6,29.94,NE,43,1.0,1.0,57,-99.99,,,0.00,wview2wurapid,2013-10-27 01:42:00,
2013-10-26 21:47:00,48.1,34.0,29.94,East,84,0.0,0.0,58,-99.99,,,0.00,wview2wurapid,2013-10-27 01:47:00,
2013-10-26 21:52:00,48.0,33.5,29.94,East,84,0.0,0.0,57,-99.99,,,0.00,wview2wurapid,2013-10-27 01:52:00,
2013-10-26 21:57:00,48.1,34.5,29.94,NNE,33,1.0,1.0,59,-99.99,,,0.00,wview2wurapid,2013-10-27 01:57:00,
2013-10-26 22:02:00,48.1,33.6,29.93,NE,56,0.0,0.0,57,-99.99,,,0.00,wview2wurapid,2013-10-27 02:02:00,
2013-10-26 22:07:00,48.1,34.5,29.93,NE,55,0.0,0.0,59,-99.99,,,0.00,wview2wurapid,2013-10-27 02:07:00,
2013-10-26 22:12:00,48.1,33.6,29.93,NE,53,0.0,0.0,57,-99.99,,,0.00,wview2wurapid,2013-10-27 02:12:00,
2013-10-26 22:17:00,48.1,34.0,29.93,East,96,0.0,0.0,58,-99.99,,,0.00,wview2wurapid,2013-10-27 02:17:00,
2013-10-26 22:22:00,48.2,34.1,29.93,NE,43,0.0,0.0,58,-99.99,,,0.00,wview2wurapid,2013-10-27 02:22:00,
2013-10-26 22:27:00,48.0,34.4,29.93,ESE,103,0.0,0.0,59,-99.99,,,0.00,wview2wurapid,2013-10-27 02:27:00,
2013-10-26 22:32:00,48.0,34.4,29.93,North,4,0.0,0.0,59,-99.99,,,0.00,wview2wurapid,2013-10-27 02:32:00,
2013-10-26 22:37:00,47.9,34.7,29.93,NNE,18,0.0,0.0,60,-99.99,,,0.00,wview2wurapid,2013-10-27 02:37:00,
2013-10-26 22:42:00,47.9,33.8,29.92,East,96,0.0,0.0,58,-99.99,,,0.00,wview2wurapid,2013-10-27 02:42:00,
2013-10-26 22:47:00,48.0,33.9,29.92,ESE,112,0.0,0.0,58,-99.99,,,0.00,wview2wurapid,2013-10-27 02:47:00,
2013-10-26 22:52:00,48.1,34.5,29.92,ESE,111,0.0,0.0,59,-99.99,,,0.00,wview2wurapid,2013-10-27 02:52:00,
2013-10-26 22:57:00,48.0,34.4,29.92,ESE,111,0.0,0.0,59,-99.99,,,0.00,wview2wurapid,2013-10-27 02:57:00,
2013-10-26 23:02:00,48.0,34.4,29.92,NE,39,0.0,0.0,59,-99.99,,,0.00,wview2wurapid,2013-10-27 03:02:00,
2013-10-26 23:07:00,48.1,34.0,29.92,North,0,0.0,0.0,58,-99.99,,,0.00,wview2wurapid,2013-10-27 03:07:00,
2013-10-26 23:12:00,48.1,34.0,29.92,SSW,204,0.0,0.0,58,-99.99,,,0.00,wview2wurapid,2013-10-27 03:12:00,
2013-10-26 23:17:00,48.1,34.0,29.92,SSE,160,0.0,0.0,58,-99.99,,,0.00,wview2wurapid,2013-10-27 03:17:00,
2013-10-26 23:22:00,48.1,33.2,29.91,East,87,0.0,0.0,56,-99.99,,,0.00,wview2wurapid,2013-10-27 03:22:00,
2013-10-26 23:27:00,48.1,34.0,29.91,East,89,0.0,0.0,58,-99.99,,,0.00,wview2wurapid,2013-10-27 03:27:00,
2013-10-26 23:32:00,48.2,34.1,29.91,East,93,0.0,0.0,58,-99.99,,,0.00,wview2wurapid,2013-10-27 03:32:00,
2013-10-26 23:37:00,48.2,34.1,29.91,North,5,0.0,0.0,58,-99.99,,,0.00,wview2wurapid,2013-10-27 03:37:00,
2013-10-26 23:42:00,48.1,33.6,29.91,East,98,0.0,0.0,57,-99.99,,,0.00,wview2wurapid,2013-10-27 03:42:00,
2013-10-26 23:47:00,48.1,34.0,29.90,SW,226,0.0,0.0,58,-99.99,,,0.00,wview2wurapid,2013-10-27 03:47:00,
2013-10-26 23:52:00,48.0,33.5,29.90,SW,222,0.0,0.0,57,-99.99,,,0.00,wview2wurapid,2013-10-27 03:52:00,
2013-10-26 23:57:00,47.9,33.8,29.90,SW,221,0.0,0.0,58,-99.99,,,0.00,wview2wurapid,2013-10-27 03:57:00,